x

West Santa Barbara 38 Nm West Of Santa Barbara, Ca (46054) Wave Buoy

10:50am - Wed 4th Mar 2015 All times are PST. -8 hours from GMT.

  • Sig Wave height 5.2ft
  • Swell Direction
  • Peak Period 16s
  • Average Period 7s
  • Wind
    4mph
  • Sea Temp 59°f
  • 空気 Temp 58°f
  • Sea Pressure 1019mb
  • West Santa Barbara  38 Nm West Of Santa Barbara, Ca
  • West Santa Barbara  38 Nm West Of Santa Barbara, Ca

More Historic Weather Station data

Upgrade to MSW Pro to gain access to the past 30 days of data for over 8000 Wavebouys and Weather Stations around the globe.

Join Pro

Comparision Forecast

View Surf forecast
   
Wed 03/04 10:50am 5ft 16s 7s 4
mph
1019mb 59f 58f
9:50am 5.5ft 10s 7s 4 7 mph 1018.6mb 58f 58f
8:50am 6ft 16s 8s 4 7 mph 1018mb 58f 58f
7:50am 6ft 10s 7s 9
mph
1016.9mb 58f 58f
6:50am 6ft 16s 7s 7 9 mph 1016mb 58f 57f
5:50am 6ft 17s 7s 7
mph
1015.4mb 58f 57f
4:50am 6ft 17s 7s 9
mph
1014.9mb 58f 57f
3:50am 6ft 10s 7s 13 18 mph 1014.5mb 58f 57f
2:50am 6.5ft 11s 7s 18 20 mph 1014.5mb 58f 56f
1:50am 7ft 10s 7s 20 25 mph 1014.7mb 58f 57f
12:50am 6ft 10s 6s 20 25 mph 1014.8mb 58f 56f
Tue 03/03 11:50pm 6ft 17s 6s 22 27 mph 1014.3mb 58f 56f
10:50pm 6.5ft 10s 6s 25 29 mph 1014.2mb 58f 57f
9:50pm 6ft 10s 6s 25 29 mph 1014mb 58f 57f
8:50pm 6ft 10s 6s 22 29 mph 1013.7mb 58f 57f
7:50pm 6.5ft 10s 6s 25 29 mph 1013.4mb 58f 57f
6:50pm 6ft 10s 6s 27 31 mph 1012.7mb 58f 57f
5:50pm 6.5ft 10s 6s 25 29 mph 1012.3mb 58f 57f
4:50pm 6.5ft 11s 6s 25 31 mph 1012.1mb 58f 57f
3:50pm 6.5ft 11s 6s 25 31 mph 1012.4mb 58f 57f
2:50pm 7ft 10s 7s 22 27 mph 1012.9mb 58f 57f
1:50pm 6.5ft 10s 7s 22 29 mph 1013.2mb 58f 57f
12:50pm 5.5ft 9s 7s 20 25 mph 1014mb 58f 57f
11:50am 6ft 9s 7s 18 22 mph 1014.6mb 58f 56f
10:50am 6ft 10s 8s 13 16 mph 1015mb 59f 57f
9:50am 5.5ft 9s 8s 7 9 mph 1015.3mb 58f 56f
8:50am 5.5ft 10s 7s 11
mph
1015.2mb 58f 56f
7:50am 6ft 9s 8s 11 13 mph 1014.5mb 58f 56f
6:50am 6ft 10s 8s 7 9 mph 1013.9mb 58f 56f
5:50am 6ft 10s 8s 9 11 mph 1013.6mb 58f 55f
4:50am 6ft 10s 8s 11 13 mph 1013.4mb 58f 56f
3:50am 6ft 11s 8s 11 13 mph 1013.3mb 58f 56f
2:50am 6ft 11s 8s 11 13 mph 1013.7mb 58f 56f
1:50am 6ft 10s 7s 11 16 mph 1013.8mb 59f 56f
12:50am 4.5ft 10s 7s 16 20 mph 1013.7mb 59f 56f
Mon 03/02 11:50pm 5ft 11s 7s 13 18 mph 1013.8mb 59f 56f
10:50pm 4.5ft 10s 7s 11 18 mph 1013.6mb 59f 57f
9:50pm 4.5ft 10s 8s 11 13 mph 1013.5mb 59f 56f
8:50pm 4.5ft 10s 7s 11 13 mph 1013.1mb 59f 56f
7:50pm 4.5ft 10s 7s 7 9 mph 1012.8mb 59f 56f
6:50pm 4.5ft 9s 7s 9 11 mph 1012mb 59f 56f
5:50pm 4.5ft 10s 7s 4 7 mph 1011.8mb 60f 56f
4:50pm 4.5ft 10s 7s 4
mph
1011.7mb 60f 56f
3:50pm 5ft 10s 7s 4 7 mph 1011.6mb 60f 56f
2:50pm 5.5ft 10s 7s 4 9 mph 1011.5mb 60f 56f
1:50pm 5ft 10s 7s 4
mph
1011.8mb 60f 56f
12:50pm 5ft 10s 7s 7 9 mph 1012.1mb 59f 56f
11:50am 5ft 10s 7s 16 18 mph 1012.6mb 59f 54f
10:50am 6ft 10s 7s 13 16 mph 1012.6mb 59f 55f
9:50am 6ft 10s 8s 11 16 mph 1012.8mb 59f 53f
8:50am 6ft 11s 8s 2 7 mph 1012.5mb 59f 56f
7:50am 5.5ft 11s 8s 2 4 mph 1011.9mb 59f 56f
6:50am 5.5ft 11s 8s 2 4 mph 1011.7mb 59f 55f
5:50am 6ft 11s 9s 4 7 mph 1011.6mb 59f 55f
4:50am 6ft 11s 9s 7
mph
1011.5mb 59f 55f
3:50am 7ft 11s 9s 7
mph
1011.6mb 59f 55f
2:50am 6.5ft 11s 9s 2 4 mph 1012mb 60f 55f
1:50am 6ft 11s 9s 4 7 mph 1012.5mb 60f 56f
12:50am 7ft 11s 9s 7
mph
1012.8mb 60f 56f
Sun 03/01 11:50pm 8ft 12s 9s 9
mph
1013.2mb 60f 56f
10:50pm 7ft 12s 9s 9 11 mph 1013.5mb 60f 56f
9:50pm 8ft 11s 9s 7 9 mph 1013.6mb 60f 56f
8:50pm 7ft 12s 9s 9 11 mph 1013.4mb 60f 56f
7:50pm 8ft 12s 9s 9 11 mph 1013.1mb 60f 56f
6:50pm 7ft 11s 9s 9 13 mph 1012.5mb 60f 57f
5:50pm 8ft 11s 9s 9 11 mph 1012.4mb 60f 57f
4:50pm 7.5ft 12s 9s 4 9 mph 1012.2mb 61f 57f
3:50pm 7.5ft 11s 9s  -  2 mph 1012.3mb 61f 58f
2:50pm 7ft 11s 8s 2 4 mph 1012.3mb 61f 57f
1:50pm 7ft 11s 8s 2 4 mph 1012.5mb 61f 57f
12:50pm 7ft 11s 8s 2 4 mph 1012.9mb 60f 57f
11:50am 6ft 11s 8s 7 11 mph 1013.5mb 60f 56f
10:50am 7ft 10s 8s 9 11 mph 1013.7mb 60f 56f
9:50am 6ft 10s 8s 9 11 mph 1013.6mb 60f 56f
8:50am 6.5ft 10s 8s 9 11 mph 1013.3mb 59f 56f
7:50am 5.5ft 9s 8s 7 11 mph 1013mb 59f 56f
6:50am 6ft 10s 8s 7 9 mph 1012.7mb 59f 55f
5:50am 6ft 9s 8s 9 13 mph 1012mb 59f 55f
4:50am 6ft 10s 8s 11 16 mph 1011.9mb 59f 55f
3:50am 6ft 9s 8s 13 16 mph 1011.6mb 59f 55f
2:50am 6ft 9s 8s 7 9 mph 1011.8mb 60f 55f
1:50am 6ft 9s 7s 9 11 mph 1012.3mb 60f 55f
12:50am 6ft 9s 7s 7 11 mph 1012.2mb 60f 55f
Sat 02/28 11:50pm 6ft 9s 8s 9 11 mph 1011.9mb 60f 54f
10:50pm 6ft 9s 7s 9 11 mph 1011.9mb 60f 56f
9:50pm 6.5ft 9s 7s 4 7 mph 1011.5mb 60f 55f
8:50pm 6ft 9s 7s 7 11 mph 1011.1mb 60f 56f
7:50pm 6ft 8s 7s 7
mph
1010.7mb 59f 56f